Time;durP1;ratioP1;P1;durP2;ratioP2;P2;SDS_P1;SDS_P2;PMS_P1;PMS_P2;Temp;Humidity;BMP_temperature;BMP_pressure;BME280_temperature;BME280_humidity;BME280_pressure;Samples;Min_cycle;Max_cycle;Signal;HPM_P1;HPM_P2
2024/01/19 00:02:20;;;;;;;6.70;2.08;;;0.50;99.90;;;;;;4954273;28;20039;-83
2024/01/19 00:04:46;;;;;;;5.05;1.63;;;1.40;99.90;;;;;;4953265;28;20465;-83
2024/01/19 00:07:12;;;;;;;6.50;1.70;;;0.50;99.90;;;;;;4953045;28;20046;-83
2024/01/19 00:09:38;;;;;;;4.18;1.50;;;0.50;99.90;;;;;;4985534;28;20125;-83
2024/01/19 00:12:04;;;;;;;10.00;2.75;;;0.70;99.90;;;;;;4954049;28;20154;-83
2024/01/19 00:14:29;;;;;;;6.65;1.80;;;0.50;99.90;;;;;;4953474;28;20047;-83
2024/01/19 00:16:55;;;;;;;2.63;1.33;;;0.50;99.90;;;;;;4952230;28;20563;-83
2024/01/19 00:19:21;;;;;;;5.22;1.50;;;0.70;99.90;;;;;;4953839;28;20047;-83
2024/01/19 00:21:47;;;;;;;5.53;1.60;;;1.10;99.90;;;;;;4968981;28;20518;-83
2024/01/19 00:24:13;;;;;;;4.20;1.45;;;0.40;99.90;;;;;;4938039;28;20497;-83
2024/01/19 00:26:40;;;;;;;2.60;1.38;;;0.60;99.90;;;;;;4953999;28;20489;-84
2024/01/19 00:29:06;;;;;;;5.15;1.83;;;0.80;99.90;;;;;;4967502;28;20093;-83
2024/01/19 00:31:33;;;;;;;4.30;1.63;;;1.40;99.90;;;;;;4949683;28;20054;-83
2024/01/19 00:33:59;;;;;;;4.30;1.55;;;0.70;99.90;;;;;;4934326;28;20102;-83
2024/01/19 00:36:25;;;;;;;4.38;1.45;;;0.80;99.90;;;;;;4968636;28;20050;-83
2024/01/19 00:38:52;;;;;;;3.80;1.40;;;1.20;99.90;;;;;;4979730;28;20408;-83
2024/01/19 00:41:18;;;;;;;3.72;1.40;;;0.80;99.90;;;;;;5001466;28;20054;-83
2024/01/19 00:43:44;;;;;;;4.47;1.50;;;2.10;99.90;;;;;;4953504;28;20134;-83
2024/01/19 00:46:10;;;;;;;3.97;1.60;;;1.80;99.90;;;;;;4952697;28;20051;-83
2024/01/19 00:48:36;;;;;;;2.60;1.40;;;0.90;99.90;;;;;;4980691;28;20043;-83
2024/01/19 00:51:02;;;;;;;2.15;1.38;;;0.90;99.90;;;;;;4953091;28;20049;-83
2024/01/19 00:53:28;;;;;;;5.05;1.70;;;0.90;99.90;;;;;;4972867;28;20043;-83
2024/01/19 00:55:53;;;;;;;2.38;1.33;;;0.90;99.90;;;;;;4940474;28;20514;-83
2024/01/19 00:58:19;;;;;;;4.25;1.50;;;0.90;99.90;;;;;;4956202;28;20364;-83
2024/01/19 01:00:45;;;;;;;5.10;1.50;;;2.50;99.90;;;;;;4956915;28;20038;-83
2024/01/19 01:03:11;;;;;;;6.13;1.50;;;1.00;99.90;;;;;;4973061;28;20071;-83
2024/01/19 01:05:36;;;;;;;4.97;1.50;;;1.70;99.90;;;;;;4956985;28;20039;-83
2024/01/19 01:08:02;;;;;;;4.20;1.38;;;1.00;99.90;;;;;;4938635;28;20058;-83
2024/01/19 01:10:28;;;;;;;3.40;1.33;;;0.90;99.90;;;;;;4957050;28;20070;-83
2024/01/19 01:12:54;;;;;;;4.03;1.50;;;1.00;99.90;;;;;;4941216;28;20043;-83
2024/01/19 01:15:20;;;;;;;4.57;1.40;;;0.90;99.90;;;;;;4957045;28;20475;-83
2024/01/19 01:17:45;;;;;;;2.53;1.40;;;0.80;99.90;;;;;;4940009;28;20074;-83
2024/01/19 01:20:11;;;;;;;2.25;1.30;;;0.80;99.90;;;;;;4920570;28;20508;-83
2024/01/19 01:22:37;;;;;;;1.73;1.27;;;0.90;99.90;;;;;;4940098;28;20055;-83
2024/01/19 01:25:03;;;;;;;2.80;1.45;;;1.50;99.90;;;;;;4956558;28;20069;-83
2024/01/19 01:27:29;;;;;;;3.28;1.50;;;0.70;99.90;;;;;;4934429;28;20121;-83
2024/01/19 01:29:55;;;;;;;1.58;1.30;;;1.30;99.90;;;;;;4937113;28;20133;-83
2024/01/19 01:32:21;;;;;;;2.22;1.40;;;2.00;99.90;;;;;;4940768;28;20078;-83
2024/01/19 01:34:46;;;;;;;4.80;1.40;;;0.70;99.90;;;;;;4940645;28;20431;-83
2024/01/19 01:37:12;;;;;;;2.47;1.65;;;0.80;99.90;;;;;;4969782;28;20042;-82
2024/01/19 01:39:38;;;;;;;2.38;1.30;;;1.60;99.90;;;;;;4979298;28;20054;-83
2024/01/19 01:42:04;;;;;;;2.92;1.48;;;0.60;99.90;;;;;;4971102;28;20137;-83
2024/01/19 01:44:30;;;;;;;2.85;1.45;;;0.50;99.90;;;;;;4972881;28;20113;-83
2024/01/19 01:46:55;;;;;;;2.83;1.50;;;1.70;99.90;;;;;;4937473;28;20050;-83
2024/01/19 01:49:21;;;;;;;4.95;1.58;;;1.00;99.90;;;;;;4938060;28;20044;-83
2024/01/19 01:51:47;;;;;;;4.47;1.50;;;0.80;99.90;;;;;;4955771;28;20074;-83
2024/01/19 01:54:14;;;;;;;5.88;2.35;;;1.10;99.90;;;;;;4921970;28;20078;-83
2024/01/19 01:56:40;;;;;;;5.07;1.50;;;0.40;99.90;;;;;;4955171;28;20038;-83
2024/01/19 01:59:08;;;;;;;5.47;1.50;;;0.70;99.90;;;;;;4937232;28;20092;-83
2024/01/19 02:01:34;;;;;;;3.85;1.42;;;0.40;99.90;;;;;;4972348;28;20043;-83
2024/01/19 02:04:01;;;;;;;4.10;1.92;;;0.30;99.90;;;;;;4955399;28;20061;-83
2024/01/19 02:06:28;;;;;;;2.92;1.40;;;0.50;99.90;;;;;;4945310;28;20049;-83
2024/01/19 02:08:54;;;;;;;3.25;1.42;;;1.00;99.90;;;;;;4988254;28;20157;-83
2024/01/19 02:11:20;;;;;;;4.00;1.50;;;1.20;99.90;;;;;;4987733;28;20400;-83
2024/01/19 02:13:45;;;;;;;4.32;1.50;;;0.40;99.90;;;;;;4955753;28;20039;-83
2024/01/19 02:16:11;;;;;;;4.10;1.50;;;0.40;99.90;;;;;;4941165;28;20074;-83
2024/01/19 02:18:37;;;;;;;5.32;1.90;;;1.90;99.90;;;;;;4955130;28;20440;-83
2024/01/19 02:21:03;;;;;;;5.43;1.65;;;0.60;99.90;;;;;;4939653;28;20054;-83
2024/01/19 02:23:34;;;;;;;3.05;1.40;;;0.50;99.90;;;;;;4971867;28;20134;-83
2024/01/19 02:26:02;;;;;;;3.05;1.42;;;0.60;99.90;;;;;;4955070;28;20042;-83
2024/01/19 02:28:31;;;;;;;4.22;1.60;;;0.60;99.90;;;;;;5002598;28;20100;-83
2024/01/19 02:30:57;;;;;;;4.90;1.60;;;1.40;99.90;;;;;;4939901;28;20528;-83
2024/01/19 02:33:22;;;;;;;3.47;1.55;;;2.00;99.90;;;;;;4955141;28;20046;-83
2024/01/19 02:35:48;;;;;;;9.85;1.90;;;0.70;99.90;;;;;;4921879;28;20042;-83
2024/01/19 02:38:14;;;;;;;6.50;1.60;;;1.10;99.90;;;;;;4931437;29;20071;-83
2024/01/19 02:40:40;;;;;;;4.93;1.60;;;0.70;99.90;;;;;;4987267;28;20040;-83
2024/01/19 02:43:05;;;;;;;4.45;1.50;;;0.70;99.90;;;;;;4955125;28;20067;-83
2024/01/19 02:45:31;;;;;;;6.05;1.70;;;0.70;99.90;;;;;;4954753;28;20094;-83
2024/01/19 02:47:57;;;;;;;3.95;1.50;;;0.60;99.90;;;;;;4985037;28;20039;-83
2024/01/19 02:50:23;;;;;;;5.85;1.52;;;2.30;99.90;;;;;;4954614;28;20492;-83
2024/01/19 02:52:48;;;;;;;4.45;1.58;;;0.60;99.90;;;;;;4937372;28;20186;-83
2024/01/19 02:55:14;;;;;;;5.38;1.70;;;0.40;99.90;;;;;;4937969;28;20046;-83
2024/01/19 02:57:40;;;;;;;3.97;1.52;;;0.50;99.90;;;;;;4939326;28;20078;-83
2024/01/19 03:00:07;;;;;;;4.35;1.45;;;1.60;99.90;;;;;;4970085;28;20543;-83
2024/01/19 03:02:33;;;;;;;3.38;1.55;;;0.30;99.90;;;;;;4938877;28;20043;-83
2024/01/19 03:04:59;;;;;;;6.43;1.70;;;1.20;99.90;;;;;;4953905;28;20050;-83
2024/01/19 03:07:25;;;;;;;4.55;1.58;;;0.20;99.90;;;;;;5003560;28;20085;-82
2024/01/19 03:09:50;;;;;;;3.50;1.50;;;0.60;99.90;;;;;;4971156;28;20440;-83
2024/01/19 03:12:17;;;;;;;4.25;1.40;;;0.10;99.90;;;;;;4923133;28;20039;-83
2024/01/19 03:14:43;;;;;;;5.05;1.75;;;0.20;99.90;;;;;;4944946;28;20546;-83
2024/01/19 03:17:10;;;;;;;3.97;1.50;;;0.20;99.90;;;;;;4985322;28;20069;-83
2024/01/19 03:19:36;;;;;;;5.18;1.50;;;0.10;99.90;;;;;;4954457;28;20050;-83
2024/01/19 03:22:02;;;;;;;5.65;1.60;;;0.00;99.90;;;;;;4969999;28;20059;-83
2024/01/19 03:24:29;;;;;;;4.45;1.50;;;0.10;99.90;;;;;;4954763;28;20034;-83
2024/01/19 03:26:55;;;;;;;5.90;1.80;;;1.50;99.90;;;;;;4969671;28;20182;-83
2024/01/19 03:29:22;;;;;;;5.25;1.70;;;-0.10;99.90;;;;;;4922749;28;20385;-83
2024/01/19 03:31:48;;;;;;;4.00;1.70;;;0.00;99.90;;;;;;4954308;28;20042;-83
2024/01/19 03:34:14;;;;;;;4.57;1.83;;;-0.10;99.90;;;;;;4938511;28;20405;-83
2024/01/19 03:36:40;;;;;;;6.57;1.80;;;1.00;99.90;;;;;;4953680;28;20074;-83
2024/01/19 03:39:06;;;;;;;5.85;1.63;;;0.80;99.90;;;;;;4935831;28;20651;-83
2024/01/19 03:41:32;;;;;;;9.07;2.80;;;1.70;99.90;;;;;;4969338;28;20043;-83
2024/01/19 03:43:58;;;;;;;6.70;1.83;;;0.00;99.90;;;;;;4922670;28;20164;-83
2024/01/19 03:46:24;;;;;;;5.53;1.60;;;0.00;99.90;;;;;;4936988;28;20045;-83
2024/01/19 03:48:49;;;;;;;6.35;1.80;;;0.10;99.90;;;;;;4934915;28;20053;-83
2024/01/19 03:51:15;;;;;;;7.53;1.65;;;0.20;99.90;;;;;;4934080;28;20122;-83
2024/01/19 03:53:44;;;;;;;4.72;2.00;;;0.70;99.90;;;;;;5002570;28;20412;-83
2024/01/19 03:56:10;;;;;;;6.53;1.90;;;1.10;99.90;;;;;;4953964;28;20046;-83
2024/01/19 03:58:36;;;;;;;4.07;1.50;;;0.10;99.90;;;;;;4952639;28;20038;-83
2024/01/19 04:01:04;;;;;;;5.35;1.60;;;1.20;99.90;;;;;;4953529;28;20045;-83
2024/01/19 04:03:30;;;;;;;6.03;2.00;;;0.00;99.90;;;;;;4969501;28;20038;-83
2024/01/19 04:05:56;;;;;;;4.40;1.80;;;0.00;99.90;;;;;;4953061;28;20043;-83
2024/01/19 04:08:22;;;;;;;5.40;1.80;;;-0.10;99.90;;;;;;4938110;28;20053;-83
2024/01/19 04:10:47;;;;;;;7.00;1.75;;;0.10;99.90;;;;;;4953470;28;20413;-83
2024/01/19 04:13:13;;;;;;;5.90;1.80;;;0.00;99.90;;;;;;4953638;28;20061;-83
2024/01/19 04:15:39;;;;;;;4.05;1.73;;;1.30;99.90;;;;;;4936793;28;20470;-83
2024/01/19 04:18:05;;;;;;;5.82;1.75;;;1.20;99.90;;;;;;4981143;28;20150;-83
2024/01/19 04:20:30;;;;;;;5.13;1.65;;;0.00;99.90;;;;;;4937342;28;20051;-83
2024/01/19 04:22:56;;;;;;;7.03;1.80;;;0.00;99.90;;;;;;5000755;28;20053;-83
2024/01/19 04:25:22;;;;;;;9.60;1.90;;;-0.10;99.90;;;;;;4936195;28;20035;-83
2024/01/19 04:27:48;;;;;;;8.50;1.73;;;-0.20;99.90;;;;;;4934701;28;20034;-83
2024/01/19 04:30:14;;;;;;;6.70;2.00;;;1.10;99.90;;;;;;4945296;28;20043;-83
2024/01/19 04:32:39;;;;;;;5.30;1.80;;;-0.20;99.90;;;;;;4933298;28;20059;-83
2024/01/19 04:35:05;;;;;;;8.60;1.88;;;0.60;99.90;;;;;;4937198;28;20038;-83
2024/01/19 04:37:31;;;;;;;6.65;1.75;;;-0.20;99.90;;;;;;4948418;28;20118;-83
2024/01/19 04:39:57;;;;;;;9.32;1.90;;;-0.20;99.90;;;;;;4979707;28;20110;-83
2024/01/19 04:42:22;;;;;;;9.00;2.60;;;1.60;99.90;;;;;;4950353;28;20075;-83
2024/01/19 04:44:48;;;;;;;6.43;1.90;;;0.50;99.90;;;;;;4984416;28;20142;-83
2024/01/19 04:47:14;;;;;;;7.85;2.33;;;-0.20;99.90;;;;;;4951209;28;20043;-83
2024/01/19 04:49:40;;;;;;;6.57;1.80;;;-0.10;99.90;;;;;;4937846;28;20109;-83
2024/01/19 04:52:05;;;;;;;9.07;2.03;;;-0.30;99.90;;;;;;4952940;28;20049;-83
2024/01/19 04:54:31;;;;;;;8.55;1.90;;;-0.30;99.90;;;;;;4952125;28;20266;-83
2024/01/19 04:56:57;;;;;;;10.27;2.30;;;-0.10;99.90;;;;;;4935991;28;20054;-83
2024/01/19 04:59:23;;;;;;;7.32;2.03;;;-0.20;99.90;;;;;;4937513;28;20039;-83
2024/01/19 05:01:48;;;;;;;8.32;2.10;;;1.30;99.90;;;;;;4953229;28;20116;-83
2024/01/19 05:04:14;;;;;;;7.05;2.00;;;0.20;99.90;;;;;;4952311;28;20539;-83
2024/01/19 05:06:41;;;;;;;8.43;2.10;;;1.20;99.90;;;;;;4920188;28;20045;-83
2024/01/19 05:09:08;;;;;;;7.72;2.08;;;-0.40;99.90;;;;;;4933438;28;20043;-83
2024/01/19 05:11:33;;;;;;;6.35;1.90;;;0.20;99.90;;;;;;4931674;28;20038;-83
2024/01/19 05:14:02;;;;;;;7.57;1.90;;;1.30;99.90;;;;;;4953145;28;20042;-83
2024/01/19 05:16:28;;;;;;;5.60;1.67;;;-0.40;99.90;;;;;;4951192;28;20125;-83
2024/01/19 05:18:54;;;;;;;10.35;2.30;;;0.40;99.90;;;;;;4936564;28;20039;-83
2024/01/19 05:21:20;;;;;;;7.90;1.90;;;1.30;99.90;;;;;;4949402;28;20081;-83
2024/01/19 05:23:45;;;;;;;9.20;2.00;;;1.10;99.90;;;;;;4931188;28;20057;-83
2024/01/19 05:26:11;;;;;;;10.93;2.28;;;-0.30;99.90;;;;;;4936387;28;20079;-83
2024/01/19 05:28:37;;;;;;;7.88;2.05;;;-0.20;99.90;;;;;;4934578;28;20408;-84
2024/01/19 05:31:03;;;;;;;5.60;1.70;;;-0.20;99.90;;;;;;4968349;28;20035;-83
2024/01/19 05:33:34;;;;;;;8.68;1.80;;;-0.20;99.90;;;;;;4952279;28;20047;-83
2024/01/19 05:36:00;;;;;;;11.38;2.00;;;-0.10;99.90;;;;;;4978524;28;20405;-83
2024/01/19 05:38:26;;;;;;;8.30;2.28;;;-0.10;99.90;;;;;;4948959;28;20093;-83
2024/01/19 05:40:52;;;;;;;5.68;2.10;;;1.40;99.90;;;;;;4939846;28;20074;-83
2024/01/19 05:43:17;;;;;;;7.10;1.90;;;1.40;99.90;;;;;;4942246;28;20034;-83
2024/01/19 05:45:43;;;;;;;9.35;3.05;;;0.00;99.90;;;;;;4955256;28;20035;-83
2024/01/19 05:48:09;;;;;;;5.88;1.73;;;0.00;99.90;;;;;;4969305;28;20046;-83
2024/01/19 05:50:35;;;;;;;6.50;2.00;;;0.00;99.90;;;;;;4939379;28;20042;-83
2024/01/19 05:53:00;;;;;;;7.72;2.30;;;0.60;99.90;;;;;;4955559;28;20042;-83
2024/01/19 05:55:26;;;;;;;11.13;2.13;;;1.70;99.90;;;;;;4938879;28;20257;-83
2024/01/19 05:57:52;;;;;;;7.15;1.90;;;-0.10;99.90;;;;;;4953824;28;20035;-83
2024/01/19 06:00:18;;;;;;;8.40;2.10;;;0.30;99.90;;;;;;4938870;28;20046;-83
2024/01/19 06:02:43;;;;;;;9.52;2.20;;;-1.20;99.90;;;;;;4939485;28;20270;-83
2024/01/19 06:05:09;;;;;;;8.68;2.00;;;0.60;99.90;;;;;;4934963;28;20031;-83
2024/01/19 06:07:35;;;;;;;10.32;2.35;;;-0.40;99.90;;;;;;4949800;28;20041;-83
2024/01/19 06:10:01;;;;;;;10.43;2.03;;;1.40;99.90;;;;;;4952555;28;20464;-83
2024/01/19 06:12:26;;;;;;;7.90;1.98;;;-0.40;99.90;;;;;;4971038;28;20050;-83
2024/01/19 06:14:52;;;;;;;8.02;2.10;;;-0.30;99.90;;;;;;4970417;28;20162;-83
2024/01/19 06:17:18;;;;;;;9.68;1.83;;;-0.50;99.90;;;;;;4954010;28;20049;-83
2024/01/19 06:19:43;;;;;;;6.10;2.17;;;-0.40;99.90;;;;;;4918878;28;20042;-83
2024/01/19 06:22:10;;;;;;;8.23;1.83;;;0.40;99.90;;;;;;4938351;28;20146;-83
2024/01/19 06:24:36;;;;;;;8.55;2.00;;;1.30;99.90;;;;;;4940236;28;20046;-83
2024/01/19 06:27:03;;;;;;;4.82;1.70;;;-0.40;99.90;;;;;;4951083;28;20270;-83
2024/01/19 06:29:29;;;;;;;8.30;2.05;;;-1.70;99.90;;;;;;4977734;28;20042;-83
2024/01/19 06:31:55;;;;;;;6.70;1.90;;;-0.60;99.90;;;;;;4934080;28;20043;-83
2024/01/19 06:34:20;;;;;;;7.70;1.90;;;-0.60;99.90;;;;;;4923266;28;20039;-83
2024/01/19 06:36:46;;;;;;;7.05;2.05;;;-0.60;99.90;;;;;;4970877;28;20049;-83
2024/01/19 06:39:15;;;;;;;8.40;2.22;;;0.10;99.90;;;;;;4955629;28;20403;-83
2024/01/19 06:41:45;;;;;;;7.75;1.98;;;0.30;99.90;;;;;;4938375;28;20041;-83
2024/01/19 06:44:11;;;;;;;5.20;2.22;;;-0.60;99.90;;;;;;4955487;28;20039;-83
2024/01/19 06:46:37;;;;;;;5.78;1.65;;;0.80;99.90;;;;;;4955074;28;20039;-83
2024/01/19 06:49:03;;;;;;;6.75;1.90;;;-0.60;99.90;;;;;;4937799;28;20066;-83
2024/01/19 06:51:29;;;;;;;4.70;1.70;;;-0.60;99.90;;;;;;4969387;28;20082;-83
2024/01/19 06:53:56;;;;;;;6.45;2.30;;;;;;;;;;4922395;28;20117;-83
2024/01/19 06:56:22;;;;;;;4.50;1.70;;;-0.50;99.90;;;;;;4964570;28;20538;-83
2024/01/19 06:58:48;;;;;;;6.28;1.70;;;-0.60;99.90;;;;;;4939093;28;20067;-83
2024/01/19 07:01:14;;;;;;;8.25;2.20;;;0.80;99.90;;;;;;4938273;28;20043;-83
2024/01/19 07:03:40;;;;;;;8.68;2.33;;;1.00;99.90;;;;;;4939124;28;20047;-83
2024/01/19 07:06:06;;;;;;;8.60;1.90;;;-0.60;99.90;;;;;;4955046;28;20568;-83
2024/01/19 07:08:31;;;;;;;7.78;1.80;;;-0.70;99.90;;;;;;4938595;28;20042;-83
2024/01/19 07:10:57;;;;;;;5.25;1.58;;;0.50;99.90;;;;;;4934964;29;20122;-83
2024/01/19 07:13:23;;;;;;;6.13;1.80;;;1.20;99.90;;;;;;4957193;28;20042;-84
2024/01/19 07:15:48;;;;;;;6.55;1.83;;;0.00;99.90;;;;;;4970197;28;20046;-83
2024/01/19 07:18:14;;;;;;;6.88;1.80;;;-0.90;99.90;;;;;;4937671;28;20039;-83
2024/01/19 07:20:41;;;;;;;9.15;1.98;;;-0.60;99.90;;;;;;4938221;28;20046;-83
2024/01/19 07:23:07;;;;;;;7.38;1.90;;;-0.60;99.90;;;;;;4953711;28;20492;-83
2024/01/19 07:25:33;;;;;;;4.95;1.80;;;-0.60;99.90;;;;;;4954949;28;20043;-83
2024/01/19 07:27:59;;;;;;;9.15;1.80;;;-0.60;99.90;;;;;;4922557;28;20043;-83
2024/01/19 07:30:24;;;;;;;8.75;1.92;;;-0.70;99.90;;;;;;4938610;28;20042;-83
2024/01/19 07:32:50;;;;;;;6.65;1.80;;;-0.60;99.90;;;;;;4977071;28;20054;-82
2024/01/19 07:35:17;;;;;;;8.27;2.10;;;-0.50;99.90;;;;;;4954496;28;20455;-83
2024/01/19 07:37:43;;;;;;;5.93;1.75;;;-0.50;99.90;;;;;;4938262;28;20484;-84
2024/01/19 07:40:09;;;;;;;9.73;2.10;;;-0.50;99.90;;;;;;4965617;28;20070;-84
2024/01/19 07:42:35;;;;;;;8.65;2.67;;;-0.40;99.90;;;;;;4954056;28;20059;-84
2024/01/19 07:45:00;;;;;;;9.32;2.10;;;-0.40;99.90;;;;;;4952982;28;20120;-84
2024/01/19 07:47:26;;;;;;;8.38;1.80;;;-0.30;99.90;;;;;;4954266;28;20050;-84
2024/01/19 07:49:52;;;;;;;9.38;2.00;;;-0.20;99.90;;;;;;4954120;28;20073;-84
2024/01/19 07:52:18;;;;;;;6.63;1.80;;;0.70;99.90;;;;;;4954135;28;20049;-84
2024/01/19 07:54:44;;;;;;;10.43;2.08;;;-0.10;99.90;;;;;;4951542;28;20101;-84
2024/01/19 07:57:10;;;;;;;8.60;2.20;;;0.80;99.90;;;;;;4967508;28;20544;-84
2024/01/19 07:59:36;;;;;;;10.77;2.15;;;-0.20;99.90;;;;;;4937529;28;20118;-84
2024/01/19 08:02:03;;;;;;;11.73;2.17;;;0.90;99.90;;;;;;4951708;28;20071;-84
2024/01/19 08:04:29;;;;;;;10.63;2.97;;;0.00;99.90;;;;;;4953512;28;20039;-84
2024/01/19 08:06:55;;;;;;;7.28;1.90;;;0.00;99.90;;;;;;4953664;28;20034;-84
2024/01/19 08:09:20;;;;;;;8.35;1.90;;;0.00;99.90;;;;;;4949879;28;20043;-84
2024/01/19 08:11:46;;;;;;;6.65;1.85;;;1.70;99.90;;;;;;4953971;28;20155;-84
2024/01/19 08:14:12;;;;;;;7.22;2.00;;;1.80;99.90;;;;;;4937987;28;20118;-84
2024/01/19 08:16:37;;;;;;;9.10;2.10;;;0.30;99.90;;;;;;4938324;28;20101;-84
2024/01/19 08:19:03;;;;;;;6.90;2.15;;;1.10;99.90;;;;;;4935441;28;20114;-84
2024/01/19 08:21:30;;;;;;;6.30;1.73;;;1.50;99.90;;;;;;4969934;28;20475;-84
2024/01/19 08:23:57;;;;;;;10.63;1.90;;;0.30;99.90;;;;;;4954318;28;20061;-84
2024/01/19 08:26:22;;;;;;;8.75;2.00;;;0.80;99.90;;;;;;4937856;28;20556;-84
2024/01/19 08:28:48;;;;;;;11.10;2.25;;;0.30;99.90;;;;;;4921009;28;20122;-84
2024/01/19 08:31:14;;;;;;;10.68;2.10;;;0.30;99.90;;;;;;4937735;28;20117;-84
2024/01/19 08:33:40;;;;;;;9.48;2.25;;;0.10;99.90;;;;;;4953065;28;20736;-84
2024/01/19 08:36:06;;;;;;;8.48;1.90;;;0.10;99.90;;;;;;4937690;28;20042;-84
2024/01/19 08:38:31;;;;;;;9.07;2.45;;;0.20;99.90;;;;;;4953821;28;20496;-84
2024/01/19 08:40:57;;;;;;;10.05;2.05;;;1.60;99.90;;;;;;4936613;28;20126;-84
2024/01/19 08:43:23;;;;;;;7.50;2.20;;;1.70;99.90;;;;;;4936940;28;20042;-84
2024/01/19 08:45:48;;;;;;;6.78;2.10;;;1.40;99.90;;;;;;4937396;28;20067;-84
2024/01/19 08:48:15;;;;;;;9.02;2.15;;;0.80;99.90;;;;;;4953617;28;20046;-84
2024/01/19 08:50:41;;;;;;;11.88;2.45;;;0.90;99.90;;;;;;4968850;28;20053;-84
2024/01/19 08:53:07;;;;;;;6.70;1.88;;;1.40;99.90;;;;;;4937072;28;20043;-84
2024/01/19 08:55:32;;;;;;;10.13;2.00;;;2.20;99.90;;;;;;4962895;28;20042;-84
2024/01/19 08:57:58;;;;;;;8.60;2.20;;;2.20;99.90;;;;;;4926062;29;20043;-84
2024/01/19 09:00:24;;;;;;;10.15;2.17;;;0.80;99.90;;;;;;4949960;28;20047;-84
2024/01/19 09:02:49;;;;;;;10.20;2.53;;;1.20;99.90;;;;;;4952737;28;20253;-84
2024/01/19 09:05:16;;;;;;;5.80;1.90;;;1.50;99.90;;;;;;4953442;28;20047;-84
2024/01/19 09:07:42;;;;;;;7.22;1.98;;;2.90;99.90;;;;;;4952341;28;20042;-84
2024/01/19 09:10:08;;;;;;;7.45;2.30;;;0.90;99.90;;;;;;4937396;28;20078;-84
2024/01/19 09:12:34;;;;;;;10.02;2.47;;;0.90;99.90;;;;;;4936969;28;20051;-84
2024/01/19 09:14:59;;;;;;;6.72;1.98;;;1.40;99.90;;;;;;4941040;28;20616;-84
2024/01/19 09:17:25;;;;;;;10.65;2.10;;;2.50;99.90;;;;;;4940877;28;20053;-84
2024/01/19 09:19:51;;;;;;;8.68;2.47;;;1.20;99.90;;;;;;4956427;28;20039;-84
2024/01/19 09:22:17;;;;;;;6.50;1.95;;;1.70;99.90;;;;;;5002010;28;20475;-83
2024/01/19 09:24:43;;;;;;;12.45;2.55;;;1.20;99.90;;;;;;4940248;28;20050;-84
2024/01/19 09:27:09;;;;;;;11.27;2.15;;;3.10;99.90;;;;;;4941064;28;20092;-83
2024/01/19 09:29:35;;;;;;;9.45;2.20;;;3.30;99.90;;;;;;4957000;28;20096;-84
2024/01/19 09:32:01;;;;;;;10.75;2.50;;;3.20;99.90;;;;;;4955676;28;20035;-83
2024/01/19 09:34:26;;;;;;;8.23;2.15;;;1.40;99.90;;;;;;4939109;28;20345;-83
2024/01/19 09:36:52;;;;;;;9.32;2.10;;;1.40;99.90;;;;;;4956490;28;20575;-84
2024/01/19 09:39:19;;;;;;;8.35;2.33;;;1.50;99.90;;;;;;4955908;28;20039;-83
2024/01/19 09:42:00;;;;;;;9.50;2.30;;;1.60;99.90;;;;;;4956612;28;20435;-84
2024/01/19 09:44:29;;;;;;;10.20;2.50;;;1.60;99.90;;;;;;4972534;28;20042;-83
2024/01/19 09:47:15;;;;;;;6.78;2.13;;;1.70;99.90;;;;;;4940649;28;20049;-83
2024/01/19 09:50:03;;;;;;;7.63;2.30;;;2.00;99.90;;;;;;4972364;28;20195;-83
2024/01/19 09:52:43;;;;;;;8.02;2.40;;;1.70;99.90;;;;;;4955804;28;20047;-83
2024/01/19 09:55:11;;;;;;;8.95;2.58;;;1.70;99.90;;;;;;4967343;28;20042;-83
2024/01/19 09:57:46;;;;;;;12.23;2.13;;;1.70;99.90;;;;;;4939998;28;20035;-83
2024/01/19 10:00:14;;;;;;;9.95;2.13;;;1.80;99.90;;;;;;4955598;28;20050;-83
2024/01/19 10:02:51;;;;;;;8.85;2.63;;;1.90;99.90;;;;;;4940366;28;20046;-83
2024/01/19 10:05:18;;;;;;;9.95;2.40;;;1.90;99.90;;;;;;4954770;28;20046;-83
2024/01/19 10:07:46;;;;;;;14.18;2.70;;;2.00;99.90;;;;;;4955719;28;20050;-83
2024/01/19 10:10:12;;;;;;;6.70;1.98;;;2.00;99.90;;;;;;4972213;28;20291;-83
2024/01/19 10:12:39;;;;;;;6.72;1.98;;;2.00;99.90;;;;;;4939930;28;20082;-83
2024/01/19 10:15:11;;;;;;;9.60;2.10;;;2.10;99.90;;;;;;4970601;28;20532;-83
2024/01/19 10:17:42;;;;;;;10.65;2.40;;;2.20;99.90;;;;;;4953487;28;20046;-83
2024/01/19 10:20:14;;;;;;;8.98;2.28;;;2.20;99.90;;;;;;4955483;28;20039;-83
2024/01/19 10:22:40;;;;;;;9.85;2.17;;;3.90;99.90;;;;;;4955079;28;20058;-83
2024/01/19 10:25:08;;;;;;;9.55;2.28;;;2.40;99.90;;;;;;4968906;28;20039;-83
2024/01/19 10:27:41;;;;;;;9.40;2.08;;;4.20;99.90;;;;;;4981342;28;20122;-83
2024/01/19 10:30:09;;;;;;;10.48;2.17;;;2.50;99.90;;;;;;4955674;28;20074;-83
2024/01/19 10:32:37;;;;;;;8.15;2.35;;;2.40;99.90;;;;;;4939881;28;20045;-83
2024/01/19 10:35:14;;;;;;;8.90;2.30;;;2.40;99.90;;;;;;4939930;28;20046;-83
2024/01/19 10:37:40;;;;;;;8.00;2.00;;;2.50;99.90;;;;;;4954870;28;20043;-83
2024/01/19 10:40:24;;;;;;;13.73;2.50;;;2.50;99.90;;;;;;4998771;28;20046;-83
2024/01/19 10:42:55;;;;;;;10.50;2.92;;;2.50;99.90;;;;;;4995236;28;20052;-83
2024/01/19 10:45:24;;;;;;;12.60;2.40;;;2.60;99.90;;;;;;4987876;28;20046;-83
2024/01/19 10:47:52;;;;;;;9.00;2.50;;;2.70;99.90;;;;;;4954493;28;20108;-83
2024/01/19 10:50:19;;;;;;;6.25;1.67;;;4.50;99.90;;;;;;4971830;28;20085;-83
2024/01/19 10:52:51;;;;;;;9.98;2.45;;;2.80;99.90;;;;;;4953768;28;20496;-83
2024/01/19 10:55:21;;;;;;;10.27;2.60;;;2.80;99.90;;;;;;4955405;28;20045;-83
2024/01/19 10:57:50;;;;;;;10.43;2.05;;;3.50;99.90;;;;;;4970696;28;20050;-83
2024/01/19 11:00:23;;;;;;;9.45;2.17;;;3.00;99.90;;;;;;4969417;28;20047;-83
2024/01/19 11:02:51;;;;;;;;;;;3.50;99.90;;;;;;4954454;28;20053;-83
2024/01/19 11:05:19;;;;;;;9.93;2.58;;;3.00;99.90;;;;;;4970666;28;20090;-83
2024/01/19 11:07:45;;;;;;;8.48;2.20;;;3.40;99.90;;;;;;4937669;28;20098;-83
2024/01/19 11:10:12;;;;;;;8.45;1.92;;;4.30;99.90;;;;;;4937208;28;20121;-83
2024/01/19 11:12:47;;;;;;;9.73;2.08;;;3.30;99.90;;;;;;4954223;28;20193;-83
2024/01/19 11:15:26;;;;;;;8.95;2.35;;;3.50;99.90;;;;;;4971388;28;20085;-83
2024/01/19 11:17:53;;;;;;;10.25;2.35;;;3.10;99.90;;;;;;4970433;28;20042;-83
2024/01/19 11:20:22;;;;;;;7.65;2.15;;;3.20;99.90;;;;;;4968211;28;20499;-83
2024/01/19 11:22:48;;;;;;;10.07;2.78;;;3.20;99.90;;;;;;4942489;28;20058;-83
2024/01/19 11:25:18;;;;;;;7.63;2.05;;;5.00;99.90;;;;;;4938177;28;20038;-83
2024/01/19 11:27:52;;;;;;;11.05;2.30;;;3.20;99.90;;;;;;4953972;28;20527;-83
2024/01/19 11:30:59;;;;;;;10.18;2.38;;;3.30;99.90;;;;;;4978472;28;20078;-83
2024/01/19 11:33:30;;;;;;;10.57;2.25;;;3.30;99.90;;;;;;4944204;28;20113;-83
2024/01/19 11:35:56;;;;;;;8.95;2.10;;;3.40;99.90;;;;;;4953486;28;20122;-83
2024/01/19 11:38:40;;;;;;;9.07;2.20;;;3.40;99.90;;;;;;4938484;28;20134;-83
2024/01/19 11:41:06;;;;;;;9.57;2.00;;;3.50;99.90;;;;;;4966351;28;20042;-83
2024/01/19 11:43:42;;;;;;;8.48;2.20;;;3.60;99.90;;;;;;4920342;28;20042;-83
2024/01/19 11:46:09;;;;;;;10.90;2.17;;;3.60;99.90;;;;;;4984728;28;20081;-83
2024/01/19 11:48:45;;;;;;;10.25;2.72;;;3.70;99.90;;;;;;4952621;28;20047;-83
2024/01/19 11:51:31;;;;;;;7.55;2.22;;;3.70;99.90;;;;;;4990899;28;20043;-84
2024/01/19 11:53:58;;;;;;;12.25;2.28;;;4.00;99.90;;;;;;4994670;28;20752;-84
2024/01/19 11:56:25;;;;;;;11.05;2.00;;;3.80;99.90;;;;;;4970688;28;20057;-84
2024/01/19 11:58:51;;;;;;;9.95;2.25;;;3.90;99.90;;;;;;4983043;28;20039;-84
2024/01/19 12:01:17;;;;;;;9.77;1.85;;;3.90;99.90;;;;;;5001283;28;20501;-84
2024/01/19 12:03:43;;;;;;;7.95;1.83;;;4.00;99.90;;;;;;4968993;28;20049;-84
2024/01/19 12:06:09;;;;;;;6.93;1.70;;;4.00;99.90;;;;;;4954254;28;20050;-83
2024/01/19 12:08:35;;;;;;;6.45;2.25;;;4.10;99.90;;;;;;4954224;28;20065;-84
2024/01/19 12:11:06;;;;;;;8.32;2.15;;;4.10;99.90;;;;;;4938324;28;20385;-84
2024/01/19 12:13:33;;;;;;;7.50;2.00;;;4.40;99.90;;;;;;4934201;28;20055;-84
2024/01/19 12:16:00;;;;;;;11.13;2.85;;;4.30;99.90;;;;;;4969557;28;20574;-84
2024/01/19 12:18:27;;;;;;;6.85;2.03;;;4.30;99.90;;;;;;4952432;28;20043;-84
2024/01/19 12:20:56;;;;;;;8.57;1.95;;;4.30;99.90;;;;;;4952245;28;20070;-84
2024/01/19 12:23:24;;;;;;;7.28;2.20;;;4.30;99.90;;;;;;4935186;28;20575;-84
2024/01/19 12:25:57;;;;;;;7.30;1.63;;;4.40;99.90;;;;;;4953229;28;20403;-84
2024/01/19 12:28:24;;;;;;;7.22;2.28;;;4.40;99.90;;;;;;4953126;28;20520;-84
2024/01/19 12:30:52;;;;;;;10.18;1.80;;;4.40;99.90;;;;;;4952616;28;20047;-84
2024/01/19 12:33:25;;;;;;;10.63;1.75;;;4.40;99.90;;;;;;4963518;28;20097;-84
2024/01/19 12:36:04;;;;;;;8.00;2.38;;;4.50;99.90;;;;;;4986372;28;20049;-84
2024/01/19 12:38:30;;;;;;;6.60;2.03;;;4.50;99.90;;;;;;4985057;28;20094;-84
2024/01/19 12:40:57;;;;;;;7.13;1.77;;;4.50;99.90;;;;;;4937783;28;20038;-84
2024/01/19 12:43:27;;;;;;;6.47;1.83;;;4.50;99.90;;;;;;4921718;28;20500;-84
2024/01/19 12:46:06;;;;;;;10.25;2.03;;;4.50;99.90;;;;;;4984744;28;20093;-84
2024/01/19 12:48:33;;;;;;;7.65;2.22;;;4.50;99.90;;;;;;4954121;28;20552;-84
2024/01/19 12:51:03;;;;;;;9.60;2.00;;;4.60;99.90;;;;;;4987208;28;20039;-84
2024/01/19 12:53:31;;;;;;;8.77;2.20;;;4.60;99.90;;;;;;4957107;28;20043;-84
2024/01/19 12:55:57;;;;;;;6.90;1.95;;;4.60;99.90;;;;;;4952492;28;20043;-84